sensor_id;sensor_type;location;lat;lon;timestamp;temperature;humidity
1381;DHT22;684;48.342;10.096;2023-03-01T00:02:15;1.60;24.60
1381;DHT22;684;48.342;10.096;2023-03-01T00:04:42;1.60;24.80
1381;DHT22;684;48.342;10.096;2023-03-01T00:07:09;1.70;24.90
1381;DHT22;684;48.342;10.096;2023-03-01T00:09:36;1.70;24.90
1381;DHT22;684;48.342;10.096;2023-03-01T00:12:05;1.70;25.00
1381;DHT22;684;48.342;10.096;2023-03-01T00:14:32;1.60;25.00
1381;DHT22;684;48.342;10.096;2023-03-01T00:16:59;1.70;25.10
1381;DHT22;684;48.342;10.096;2023-03-01T00:19:27;1.70;25.10
1381;DHT22;684;48.342;10.096;2023-03-01T00:21:53;1.70;25.10
1381;DHT22;684;48.342;10.096;2023-03-01T00:24:20;1.70;25.00
1381;DHT22;684;48.342;10.096;2023-03-01T00:26:47;1.70;25.10
1381;DHT22;684;48.342;10.096;2023-03-01T00:29:15;1.70;25.20
1381;DHT22;684;48.342;10.096;2023-03-01T00:31:41;1.70;25.10
1381;DHT22;684;48.342;10.096;2023-03-01T00:34:09;1.80;25.10
1381;DHT22;684;48.342;10.096;2023-03-01T00:36:37;1.80;25.20
1381;DHT22;684;48.342;10.096;2023-03-01T00:39:05;1.80;25.30
1381;DHT22;684;48.342;10.096;2023-03-01T00:41:32;1.80;25.30
1381;DHT22;684;48.342;10.096;2023-03-01T00:44:01;1.80;25.30
1381;DHT22;684;48.342;10.096;2023-03-01T00:46:29;1.80;25.50
1381;DHT22;684;48.342;10.096;2023-03-01T00:48:56;1.80;25.40
1381;DHT22;684;48.342;10.096;2023-03-01T00:51:25;1.80;25.50
1381;DHT22;684;48.342;10.096;2023-03-01T00:53:53;1.80;25.50
1381;DHT22;684;48.342;10.096;2023-03-01T00:56:20;1.90;25.50
1381;DHT22;684;48.342;10.096;2023-03-01T00:58:47;1.90;25.60
1381;DHT22;684;48.342;10.096;2023-03-01T01:01:17;1.90;25.50
1381;DHT22;684;48.342;10.096;2023-03-01T01:03:46;1.90;25.60
1381;DHT22;684;48.342;10.096;2023-03-01T01:06:15;1.90;25.60
1381;DHT22;684;48.342;10.096;2023-03-01T01:08:42;1.90;25.50
1381;DHT22;684;48.342;10.096;2023-03-01T01:11:09;1.90;25.60
1381;DHT22;684;48.342;10.096;2023-03-01T01:13:36;1.90;25.80
1381;DHT22;684;48.342;10.096;2023-03-01T01:16:03;1.90;25.80
1381;DHT22;684;48.342;10.096;2023-03-01T01:18:30;1.90;25.70
1381;DHT22;684;48.342;10.096;2023-03-01T01:21:03;1.90;25.70
1381;DHT22;684;48.342;10.096;2023-03-01T01:23:30;1.90;25.70
1381;DHT22;684;48.342;10.096;2023-03-01T01:25:57;1.90;25.60
1381;DHT22;684;48.342;10.096;2023-03-01T01:28:24;1.90;25.70
1381;DHT22;684;48.342;10.096;2023-03-01T01:30:50;1.90;25.80
1381;DHT22;684;48.342;10.096;2023-03-01T01:33:17;1.90;25.90
1381;DHT22;684;48.342;10.096;2023-03-01T01:35:45;1.90;25.80
1381;DHT22;684;48.342;10.096;2023-03-01T01:38:14;1.90;25.80
1381;DHT22;684;48.342;10.096;2023-03-01T01:40:45;2.00;25.80
1381;DHT22;684;48.342;10.096;2023-03-01T01:43:18;2.00;25.80
1381;DHT22;684;48.342;10.096;2023-03-01T01:45:45;2.00;25.80
1381;DHT22;684;48.342;10.096;2023-03-01T01:48:16;2.00;25.80
1381;DHT22;684;48.342;10.096;2023-03-01T01:50:45;1.90;25.80
1381;DHT22;684;48.342;10.096;2023-03-01T01:53:19;1.90;25.80
1381;DHT22;684;48.342;10.096;2023-03-01T01:55:50;1.90;25.90
1381;DHT22;684;48.342;10.096;2023-03-01T01:58:20;2.00;26.00
1381;DHT22;684;48.342;10.096;2023-03-01T02:00:48;1.90;26.00
1381;DHT22;684;48.342;10.096;2023-03-01T02:03:19;2.00;26.10
1381;DHT22;684;48.342;10.096;2023-03-01T02:05:50;1.90;26.20
1381;DHT22;684;48.342;10.096;2023-03-01T02:08:21;2.00;26.20
1381;DHT22;684;48.342;10.096;2023-03-01T02:10:49;2.00;26.20
1381;DHT22;684;48.342;10.096;2023-03-01T02:13:17;2.00;26.20
1381;DHT22;684;48.342;10.096;2023-03-01T02:15:44;1.90;26.20
1381;DHT22;684;48.342;10.096;2023-03-01T02:18:14;1.90;26.20
1381;DHT22;684;48.342;10.096;2023-03-01T02:20:48;1.90;26.20
1381;DHT22;684;48.342;10.096;2023-03-01T02:23:17;1.90;26.10
1381;DHT22;684;48.342;10.096;2023-03-01T02:25:49;1.90;26.10
1381;DHT22;684;48.342;10.096;2023-03-01T02:28:29;1.90;26.10
1381;DHT22;684;48.342;10.096;2023-03-01T02:30:56;1.90;26.10
1381;DHT22;684;48.342;10.096;2023-03-01T02:33:41;1.90;26.00
1381;DHT22;684;48.342;10.096;2023-03-01T02:36:11;1.90;26.10
1381;DHT22;684;48.342;10.096;2023-03-01T02:38:40;1.90;26.20
1381;DHT22;684;48.342;10.096;2023-03-01T02:41:07;1.90;26.20
1381;DHT22;684;48.342;10.096;2023-03-01T02:43:36;1.90;26.20
1381;DHT22;684;48.342;10.096;2023-03-01T02:46:05;1.90;26.10
1381;DHT22;684;48.342;10.096;2023-03-01T02:48:40;1.90;26.10
1381;DHT22;684;48.342;10.096;2023-03-01T02:51:13;1.90;26.00
1381;DHT22;684;48.342;10.096;2023-03-01T02:53:51;1.90;26.10
1381;DHT22;684;48.342;10.096;2023-03-01T02:56:21;1.90;26.10
1381;DHT22;684;48.342;10.096;2023-03-01T02:58:49;1.80;26.10
1381;DHT22;684;48.342;10.096;2023-03-01T03:01:17;1.80;26.10
1381;DHT22;684;48.342;10.096;2023-03-01T03:03:44;1.90;26.10
1381;DHT22;684;48.342;10.096;2023-03-01T03:06:11;1.90;26.10
1381;DHT22;684;48.342;10.096;2023-03-01T03:08:38;1.90;26.20
1381;DHT22;684;48.342;10.096;2023-03-01T03:11:04;1.90;26.10
1381;DHT22;684;48.342;10.096;2023-03-01T03:13:31;1.90;26.10
1381;DHT22;684;48.342;10.096;2023-03-01T03:15:59;1.90;26.00
1381;DHT22;684;48.342;10.096;2023-03-01T03:18:26;1.90;26.10
1381;DHT22;684;48.342;10.096;2023-03-01T03:20:53;1.80;26.30
1381;DHT22;684;48.342;10.096;2023-03-01T03:23:21;1.80;26.10
1381;DHT22;684;48.342;10.096;2023-03-01T03:25:48;1.80;26.10
1381;DHT22;684;48.342;10.096;2023-03-01T03:28:16;1.80;26.10
1381;DHT22;684;48.342;10.096;2023-03-01T03:30:43;1.80;25.90
1381;DHT22;684;48.342;10.096;2023-03-01T03:33:12;1.80;25.90
1381;DHT22;684;48.342;10.096;2023-03-01T03:35:41;1.80;26.00
1381;DHT22;684;48.342;10.096;2023-03-01T03:38:10;1.90;26.00
1381;DHT22;684;48.342;10.096;2023-03-01T03:40:43;1.90;26.00
1381;DHT22;684;48.342;10.096;2023-03-01T03:43:12;1.80;25.90
1381;DHT22;684;48.342;10.096;2023-03-01T03:45:39;1.90;25.90
1381;DHT22;684;48.342;10.096;2023-03-01T03:48:07;1.90;25.70
1381;DHT22;684;48.342;10.096;2023-03-01T03:50:38;1.90;25.70
1381;DHT22;684;48.342;10.096;2023-03-01T03:53:07;1.90;25.60
1381;DHT22;684;48.342;10.096;2023-03-01T03:55:35;1.90;25.60
1381;DHT22;684;48.342;10.096;2023-03-01T03:58:05;1.90;26.10
1381;DHT22;684;48.342;10.096;2023-03-01T04:00:34;1.90;25.50
1381;DHT22;684;48.342;10.096;2023-03-01T04:03:01;1.90;25.50
1381;DHT22;684;48.342;10.096;2023-03-01T04:05:28;1.90;25.70
1381;DHT22;684;48.342;10.096;2023-03-01T04:07:57;1.90;25.60
1381;DHT22;684;48.342;10.096;2023-03-01T04:10:33;1.80;25.70
1381;DHT22;684;48.342;10.096;2023-03-01T04:13:00;1.90;25.60
1381;DHT22;684;48.342;10.096;2023-03-01T04:15:27;1.80;25.60
1381;DHT22;684;48.342;10.096;2023-03-01T04:17:55;1.90;25.70
1381;DHT22;684;48.342;10.096;2023-03-01T04:20:24;1.90;25.70
1381;DHT22;684;48.342;10.096;2023-03-01T04:22:51;1.80;25.70
1381;DHT22;684;48.342;10.096;2023-03-01T04:25:20;1.90;25.80
1381;DHT22;684;48.342;10.096;2023-03-01T04:27:46;1.90;25.70
1381;DHT22;684;48.342;10.096;2023-03-01T04:30:13;1.90;25.80
1381;DHT22;684;48.342;10.096;2023-03-01T04:32:40;1.90;25.80
1381;DHT22;684;48.342;10.096;2023-03-01T04:35:07;1.90;25.80
1381;DHT22;684;48.342;10.096;2023-03-01T04:37:34;1.90;25.80
1381;DHT22;684;48.342;10.096;2023-03-01T04:40:02;1.90;25.90
1381;DHT22;684;48.342;10.096;2023-03-01T04:42:39;1.80;25.90
1381;DHT22;684;48.342;10.096;2023-03-01T04:45:06;1.90;25.90
1381;DHT22;684;48.342;10.096;2023-03-01T04:47:38;1.90;25.90
1381;DHT22;684;48.342;10.096;2023-03-01T04:50:06;1.90;25.90
1381;DHT22;684;48.342;10.096;2023-03-01T04:52:34;1.90;25.90
1381;DHT22;684;48.342;10.096;2023-03-01T04:55:01;1.90;25.90
1381;DHT22;684;48.342;10.096;2023-03-01T04:57:29;1.90;25.90
1381;DHT22;684;48.342;10.096;2023-03-01T04:59:57;1.90;25.70
1381;DHT22;684;48.342;10.096;2023-03-01T05:02:24;1.90;25.80
1381;DHT22;684;48.342;10.096;2023-03-01T05:04:50;1.90;25.90
1381;DHT22;684;48.342;10.096;2023-03-01T05:07:17;1.90;25.80
1381;DHT22;684;48.342;10.096;2023-03-01T05:09:45;1.90;25.70
1381;DHT22;684;48.342;10.096;2023-03-01T05:12:12;1.90;25.80
1381;DHT22;684;48.342;10.096;2023-03-01T05:14:39;1.90;25.80
1381;DHT22;684;48.342;10.096;2023-03-01T05:17:07;1.90;25.70
1381;DHT22;684;48.342;10.096;2023-03-01T05:19:34;1.90;25.80
1381;DHT22;684;48.342;10.096;2023-03-01T05:22:01;1.90;25.80
1381;DHT22;684;48.342;10.096;2023-03-01T05:24:30;1.90;25.90
1381;DHT22;684;48.342;10.096;2023-03-01T05:26:58;1.90;26.00
1381;DHT22;684;48.342;10.096;2023-03-01T05:29:25;1.90;25.90
1381;DHT22;684;48.342;10.096;2023-03-01T05:31:52;1.90;26.00
1381;DHT22;684;48.342;10.096;2023-03-01T05:34:23;1.90;26.00
1381;DHT22;684;48.342;10.096;2023-03-01T05:36:50;1.90;26.00
1381;DHT22;684;48.342;10.096;2023-03-01T05:39:19;1.90;25.90
1381;DHT22;684;48.342;10.096;2023-03-01T05:41:46;1.80;25.90
1381;DHT22;684;48.342;10.096;2023-03-01T05:44:13;1.90;26.00
1381;DHT22;684;48.342;10.096;2023-03-01T05:46:40;1.90;26.00
1381;DHT22;684;48.342;10.096;2023-03-01T05:49:06;1.80;25.90
1381;DHT22;684;48.342;10.096;2023-03-01T05:51:35;1.80;25.90
1381;DHT22;684;48.342;10.096;2023-03-01T05:54:02;1.80;26.10
1381;DHT22;684;48.342;10.096;2023-03-01T05:56:32;1.80;26.10
1381;DHT22;684;48.342;10.096;2023-03-01T05:59:00;1.90;26.00
1381;DHT22;684;48.342;10.096;2023-03-01T06:01:27;1.80;26.00
1381;DHT22;684;48.342;10.096;2023-03-01T06:03:54;1.80;26.00
1381;DHT22;684;48.342;10.096;2023-03-01T06:06:22;1.80;25.90
1381;DHT22;684;48.342;10.096;2023-03-01T06:08:50;1.80;26.00
1381;DHT22;684;48.342;10.096;2023-03-01T06:11:17;1.80;25.80
1381;DHT22;684;48.342;10.096;2023-03-01T06:13:44;1.80;25.80
1381;DHT22;684;48.342;10.096;2023-03-01T06:16:11;1.80;25.70
1381;DHT22;684;48.342;10.096;2023-03-01T06:18:38;1.80;25.80
1381;DHT22;684;48.342;10.096;2023-03-01T06:21:06;1.70;25.70
1381;DHT22;684;48.342;10.096;2023-03-01T06:23:33;1.70;25.70
1381;DHT22;684;48.342;10.096;2023-03-01T06:26:05;1.70;25.80
1381;DHT22;684;48.342;10.096;2023-03-01T06:28:32;1.70;25.90
1381;DHT22;684;48.342;10.096;2023-03-01T06:30:59;1.70;25.80
1381;DHT22;684;48.342;10.096;2023-03-01T06:33:25;1.70;25.80
1381;DHT22;684;48.342;10.096;2023-03-01T06:35:54;1.70;26.00
1381;DHT22;684;48.342;10.096;2023-03-01T06:38:21;1.90;26.20
1381;DHT22;684;48.342;10.096;2023-03-01T06:40:52;1.70;25.80
1381;DHT22;684;48.342;10.096;2023-03-01T06:43:21;1.70;26.00
1381;DHT22;684;48.342;10.096;2023-03-01T06:45:47;1.60;25.70
1381;DHT22;684;48.342;10.096;2023-03-01T06:48:14;1.60;25.70
1381;DHT22;684;48.342;10.096;2023-03-01T06:50:41;1.70;25.80
1381;DHT22;684;48.342;10.096;2023-03-01T06:53:08;1.70;25.70
1381;DHT22;684;48.342;10.096;2023-03-01T06:55:34;1.70;25.50
1381;DHT22;684;48.342;10.096;2023-03-01T06:58:02;1.70;25.60
1381;DHT22;684;48.342;10.096;2023-03-01T07:00:31;1.70;25.60
1381;DHT22;684;48.342;10.096;2023-03-01T07:02:59;1.70;25.70
1381;DHT22;684;48.342;10.096;2023-03-01T07:05:27;1.80;25.40
1381;DHT22;684;48.342;10.096;2023-03-01T07:07:54;1.80;25.10
1381;DHT22;684;48.342;10.096;2023-03-01T07:10:21;1.90;25.00
1381;DHT22;684;48.342;10.096;2023-03-01T07:12:48;1.90;24.90
1381;DHT22;684;48.342;10.096;2023-03-01T07:15:15;1.90;25.00
1381;DHT22;684;48.342;10.096;2023-03-01T07:17:43;1.90;24.90
1381;DHT22;684;48.342;10.096;2023-03-01T07:20:13;2.00;24.80
1381;DHT22;684;48.342;10.096;2023-03-01T07:22:40;1.90;24.40
1381;DHT22;684;48.342;10.096;2023-03-01T07:25:08;1.90;24.20
1381;DHT22;684;48.342;10.096;2023-03-01T07:27:35;1.90;24.10
1381;DHT22;684;48.342;10.096;2023-03-01T07:30:02;1.90;24.30
1381;DHT22;684;48.342;10.096;2023-03-01T07:32:29;2.00;24.20
1381;DHT22;684;48.342;10.096;2023-03-01T07:34:58;2.00;24.70
1381;DHT22;684;48.342;10.096;2023-03-01T07:37:24;2.00;23.90
1381;DHT22;684;48.342;10.096;2023-03-01T07:39:51;2.00;23.90
1381;DHT22;684;48.342;10.096;2023-03-01T07:42:18;2.00;23.70
1381;DHT22;684;48.342;10.096;2023-03-01T07:44:45;2.10;23.80
1381;DHT22;684;48.342;10.096;2023-03-01T07:47:12;2.00;23.80
1381;DHT22;684;48.342;10.096;2023-03-01T07:49:38;2.00;24.00
1381;DHT22;684;48.342;10.096;2023-03-01T07:52:06;2.00;24.00
1381;DHT22;684;48.342;10.096;2023-03-01T07:54:35;2.00;24.00
1381;DHT22;684;48.342;10.096;2023-03-01T07:57:02;2.10;23.80
1381;DHT22;684;48.342;10.096;2023-03-01T07:59:29;2.30;23.70
1381;DHT22;684;48.342;10.096;2023-03-01T08:01:59;2.20;23.10
1381;DHT22;684;48.342;10.096;2023-03-01T08:04:26;2.20;23.20
1381;DHT22;684;48.342;10.096;2023-03-01T08:06:53;2.20;22.80
1381;DHT22;684;48.342;10.096;2023-03-01T08:09:21;2.30;22.90
1381;DHT22;684;48.342;10.096;2023-03-01T08:11:48;2.30;22.60
1381;DHT22;684;48.342;10.096;2023-03-01T08:14:15;2.30;22.80
1381;DHT22;684;48.342;10.096;2023-03-01T08:16:42;2.20;22.50
1381;DHT22;684;48.342;10.096;2023-03-01T08:19:10;2.30;22.70
1381;DHT22;684;48.342;10.096;2023-03-01T08:21:37;2.30;22.20
1381;DHT22;684;48.342;10.096;2023-03-01T08:24:05;2.40;22.40
1381;DHT22;684;48.342;10.096;2023-03-01T08:26:33;2.50;22.40
1381;DHT22;684;48.342;10.096;2023-03-01T08:29:01;2.60;21.60
1381;DHT22;684;48.342;10.096;2023-03-01T08:31:29;2.70;21.30
1381;DHT22;684;48.342;10.096;2023-03-01T08:33:57;2.80;21.00
1381;DHT22;684;48.342;10.096;2023-03-01T08:36:26;2.80;20.90
1381;DHT22;684;48.342;10.096;2023-03-01T08:38:53;2.90;20.70
1381;DHT22;684;48.342;10.096;2023-03-01T08:41:21;2.90;20.30
1381;DHT22;684;48.342;10.096;2023-03-01T08:43:49;2.90;20.70
1381;DHT22;684;48.342;10.096;2023-03-01T08:46:16;2.90;20.90
1381;DHT22;684;48.342;10.096;2023-03-01T08:48:42;2.90;20.90
1381;DHT22;684;48.342;10.096;2023-03-01T08:51:11;3.00;20.50
1381;DHT22;684;48.342;10.096;2023-03-01T08:53:38;3.00;20.00
1381;DHT22;684;48.342;10.096;2023-03-01T08:56:05;3.00;20.10
1381;DHT22;684;48.342;10.096;2023-03-01T08:58:33;3.00;19.80
1381;DHT22;684;48.342;10.096;2023-03-01T09:01:06;3.00;19.90
1381;DHT22;684;48.342;10.096;2023-03-01T09:03:32;3.10;20.00
1381;DHT22;684;48.342;10.096;2023-03-01T09:06:00;3.10;19.90
1381;DHT22;684;48.342;10.096;2023-03-01T09:08:27;3.10;19.60
1381;DHT22;684;48.342;10.096;2023-03-01T09:10:54;3.10;19.60
1381;DHT22;684;48.342;10.096;2023-03-01T09:13:21;3.10;19.80
1381;DHT22;684;48.342;10.096;2023-03-01T09:15:49;3.10;19.60
1381;DHT22;684;48.342;10.096;2023-03-01T09:18:17;3.20;20.00
1381;DHT22;684;48.342;10.096;2023-03-01T09:20:43;3.30;19.60
1381;DHT22;684;48.342;10.096;2023-03-01T09:23:10;3.20;19.50
1381;DHT22;684;48.342;10.096;2023-03-01T09:25:37;3.20;19.60
1381;DHT22;684;48.342;10.096;2023-03-01T09:28:04;3.30;19.50
1381;DHT22;684;48.342;10.096;2023-03-01T09:30:31;3.30;19.50
1381;DHT22;684;48.342;10.096;2023-03-01T09:32:57;3.40;19.40
1381;DHT22;684;48.342;10.096;2023-03-01T09:35:25;3.40;19.50
1381;DHT22;684;48.342;10.096;2023-03-01T09:37:53;3.50;19.60
1381;DHT22;684;48.342;10.096;2023-03-01T09:40:22;3.50;19.40
1381;DHT22;684;48.342;10.096;2023-03-01T09:45:36;3.50;19.20
1381;DHT22;684;48.342;10.096;2023-03-01T09:48:12;3.40;19.40
1381;DHT22;684;48.342;10.096;2023-03-01T09:50:43;3.30;19.70
1381;DHT22;684;48.342;10.096;2023-03-01T09:53:14;3.40;19.90
1381;DHT22;684;48.342;10.096;2023-03-01T09:55:44;3.40;19.90
1381;DHT22;684;48.342;10.096;2023-03-01T09:58:29;3.50;20.00
1381;DHT22;684;48.342;10.096;2023-03-01T10:01:01;3.60;20.00
1381;DHT22;684;48.342;10.096;2023-03-01T10:03:36;3.60;19.80
1381;DHT22;684;48.342;10.096;2023-03-01T10:06:12;3.60;19.80
1381;DHT22;684;48.342;10.096;2023-03-01T10:08:43;3.80;19.80
1381;DHT22;684;48.342;10.096;2023-03-01T10:11:20;3.90;19.40
1381;DHT22;684;48.342;10.096;2023-03-01T10:13:52;4.00;18.90
1381;DHT22;684;48.342;10.096;2023-03-01T10:16:24;4.00;18.90
1381;DHT22;684;48.342;10.096;2023-03-01T10:18:57;4.20;18.90
1381;DHT22;684;48.342;10.096;2023-03-01T10:21:28;4.30;18.80
1381;DHT22;684;48.342;10.096;2023-03-01T10:24:00;4.50;18.10
1381;DHT22;684;48.342;10.096;2023-03-01T10:26:41;4.30;18.00
1381;DHT22;684;48.342;10.096;2023-03-01T10:29:11;4.40;18.00
1381;DHT22;684;48.342;10.096;2023-03-01T10:31:42;4.40;18.20
1381;DHT22;684;48.342;10.096;2023-03-01T10:34:14;4.50;18.10
1381;DHT22;684;48.342;10.096;2023-03-01T10:36:44;4.70;17.70
1381;DHT22;684;48.342;10.096;2023-03-01T10:39:17;4.60;17.40
1381;DHT22;684;48.342;10.096;2023-03-01T10:42:01;4.50;17.20
1381;DHT22;684;48.342;10.096;2023-03-01T10:44:41;4.50;17.00
1381;DHT22;684;48.342;10.096;2023-03-01T10:47:17;4.50;17.20
1381;DHT22;684;48.342;10.096;2023-03-01T10:49:53;4.60;17.40
1381;DHT22;684;48.342;10.096;2023-03-01T10:52:24;4.60;17.20
1381;DHT22;684;48.342;10.096;2023-03-01T10:54:55;4.60;17.20
1381;DHT22;684;48.342;10.096;2023-03-01T10:57:33;4.80;16.70
1381;DHT22;684;48.342;10.096;2023-03-01T11:00:23;5.40;16.60
1381;DHT22;684;48.342;10.096;2023-03-01T11:03:03;6.40;14.70
1381;DHT22;684;48.342;10.096;2023-03-01T11:05:34;6.80;13.10
1381;DHT22;684;48.342;10.096;2023-03-01T11:08:03;6.80;12.60
1381;DHT22;684;48.342;10.096;2023-03-01T11:10:31;7.00;13.20
1381;DHT22;684;48.342;10.096;2023-03-01T11:13:07;7.60;13.00
1381;DHT22;684;48.342;10.096;2023-03-01T11:15:34;7.80;11.40
1381;DHT22;684;48.342;10.096;2023-03-01T11:18:02;8.10;11.50
1381;DHT22;684;48.342;10.096;2023-03-01T11:20:31;8.40;10.90
1381;DHT22;684;48.342;10.096;2023-03-01T11:23:01;8.80;10.40
1381;DHT22;684;48.342;10.096;2023-03-01T11:25:33;9.00;8.90
1381;DHT22;684;48.342;10.096;2023-03-01T11:28:03;9.30;9.70
1381;DHT22;684;48.342;10.096;2023-03-01T11:30:34;10.00;9.80
1381;DHT22;684;48.342;10.096;2023-03-01T11:33:15;10.70;8.60
1381;DHT22;684;48.342;10.096;2023-03-01T11:35:49;11.40;7.20
1381;DHT22;684;48.342;10.096;2023-03-01T11:38:22;11.90;5.80
1381;DHT22;684;48.342;10.096;2023-03-01T11:40:54;12.20;4.20
1381;DHT22;684;48.342;10.096;2023-03-01T11:43:31;12.20;2.50
1381;DHT22;684;48.342;10.096;2023-03-01T11:46:25;12.20;3.20
1381;DHT22;684;48.342;10.096;2023-03-01T11:49:01;12.30;3.20
1381;DHT22;684;48.342;10.096;2023-03-01T11:51:41;12.60;4.00
1381;DHT22;684;48.342;10.096;2023-03-01T11:54:30;13.20;2.90
1381;DHT22;684;48.342;10.096;2023-03-01T11:57:07;14.00;2.10
1381;DHT22;684;48.342;10.096;2023-03-01T11:59:49;14.40;1.00
1381;DHT22;684;48.342;10.096;2023-03-01T12:08:22;14.20;1.00
1381;DHT22;684;48.342;10.096;2023-03-01T12:10:59;14.20;1.00
1381;DHT22;684;48.342;10.096;2023-03-01T12:14:02;13.90;1.00
1381;DHT22;684;48.342;10.096;2023-03-01T12:16:46;13.30;1.00
1381;DHT22;684;48.342;10.096;2023-03-01T12:19:36;13.20;1.00
1381;DHT22;684;48.342;10.096;2023-03-01T12:22:17;13.20;1.00
1381;DHT22;684;48.342;10.096;2023-03-01T12:27:51;13.40;1.00
1381;DHT22;684;48.342;10.096;2023-03-01T12:30:32;13.30;1.40
1381;DHT22;684;48.342;10.096;2023-03-01T12:33:11;13.50;1.50
1381;DHT22;684;48.342;10.096;2023-03-01T12:35:54;13.50;1.30
1381;DHT22;684;48.342;10.096;2023-03-01T12:38:32;13.70;1.60
1381;DHT22;684;48.342;10.096;2023-03-01T12:44:10;13.70;1.00
1381;DHT22;684;48.342;10.096;2023-03-01T12:46:49;13.50;1.50
1381;DHT22;684;48.342;10.096;2023-03-01T12:49:21;13.40;1.50
1381;DHT22;684;48.342;10.096;2023-03-01T12:51:53;13.20;2.80
1381;DHT22;684;48.342;10.096;2023-03-01T12:54:26;12.60;2.70
1381;DHT22;684;48.342;10.096;2023-03-01T12:56:54;12.00;3.40
1381;DHT22;684;48.342;10.096;2023-03-01T12:59:25;11.70;4.10
1381;DHT22;684;48.342;10.096;2023-03-01T13:02:03;11.40;4.30
1381;DHT22;684;48.342;10.096;2023-03-01T13:04:42;10.90;4.60
1381;DHT22;684;48.342;10.096;2023-03-01T13:07:23;10.60;6.00
1381;DHT22;684;48.342;10.096;2023-03-01T13:09:59;10.40;6.50
1381;DHT22;684;48.342;10.096;2023-03-01T13:12:45;10.20;6.80
1381;DHT22;684;48.342;10.096;2023-03-01T13:15:27;10.10;7.40
1381;DHT22;684;48.342;10.096;2023-03-01T13:17:56;9.90;8.00
1381;DHT22;684;48.342;10.096;2023-03-01T13:20:27;9.80;8.00
1381;DHT22;684;48.342;10.096;2023-03-01T13:23:07;9.70;8.10
1381;DHT22;684;48.342;10.096;2023-03-01T13:28:50;9.50;9.30
1381;DHT22;684;48.342;10.096;2023-03-01T13:34:50;9.30;9.50
1381;DHT22;684;48.342;10.096;2023-03-01T13:37:25;9.30;9.90
1381;DHT22;684;48.342;10.096;2023-03-01T13:39:55;9.20;9.80
1381;DHT22;684;48.342;10.096;2023-03-01T13:42:40;9.20;9.90
1381;DHT22;684;48.342;10.096;2023-03-01T13:45:20;9.10;9.60
1381;DHT22;684;48.342;10.096;2023-03-01T13:47:52;8.90;10.20
1381;DHT22;684;48.342;10.096;2023-03-01T13:50:22;8.90;10.40
1381;DHT22;684;48.342;10.096;2023-03-01T13:52:53;8.80;10.40
1381;DHT22;684;48.342;10.096;2023-03-01T13:55:26;8.70;10.80
1381;DHT22;684;48.342;10.096;2023-03-01T13:57:55;8.70;10.70
1381;DHT22;684;48.342;10.096;2023-03-01T14:00:35;8.60;11.00
1381;DHT22;684;48.342;10.096;2023-03-01T14:03:11;8.60;11.20
1381;DHT22;684;48.342;10.096;2023-03-01T14:05:39;8.50;11.40
1381;DHT22;684;48.342;10.096;2023-03-01T14:08:23;8.40;11.30
1381;DHT22;684;48.342;10.096;2023-03-01T14:10:57;8.40;11.50
1381;DHT22;684;48.342;10.096;2023-03-01T14:13:39;8.40;11.60
1381;DHT22;684;48.342;10.096;2023-03-01T14:16:20;8.30;12.00
1381;DHT22;684;48.342;10.096;2023-03-01T14:18:54;8.30;12.10
1381;DHT22;684;48.342;10.096;2023-03-01T14:21:26;8.30;12.00
1381;DHT22;684;48.342;10.096;2023-03-01T14:23:52;8.20;12.30
1381;DHT22;684;48.342;10.096;2023-03-01T14:26:21;8.20;12.20
1381;DHT22;684;48.342;10.096;2023-03-01T14:28:48;8.20;12.20
1381;DHT22;684;48.342;10.096;2023-03-01T14:31:34;8.10;12.30
1381;DHT22;684;48.342;10.096;2023-03-01T14:34:01;8.00;12.30
1381;DHT22;684;48.342;10.096;2023-03-01T14:36:29;8.00;12.30
1381;DHT22;684;48.342;10.096;2023-03-01T14:38:57;8.00;12.80
1381;DHT22;684;48.342;10.096;2023-03-01T14:41:32;8.00;13.10
1381;DHT22;684;48.342;10.096;2023-03-01T14:44:01;7.90;13.10
1381;DHT22;684;48.342;10.096;2023-03-01T14:46:31;7.90;13.10
1381;DHT22;684;48.342;10.096;2023-03-01T14:49:02;7.90;13.20
1381;DHT22;684;48.342;10.096;2023-03-01T14:51:29;7.90;13.50
1381;DHT22;684;48.342;10.096;2023-03-01T14:53:56;7.90;13.30
1381;DHT22;684;48.342;10.096;2023-03-01T14:56:23;7.90;13.10
1381;DHT22;684;48.342;10.096;2023-03-01T14:58:51;7.90;13.10
1381;DHT22;684;48.342;10.096;2023-03-01T15:01:19;7.80;12.80
1381;DHT22;684;48.342;10.096;2023-03-01T15:03:47;7.80;13.10
1381;DHT22;684;48.342;10.096;2023-03-01T15:06:18;7.70;13.40
1381;DHT22;684;48.342;10.096;2023-03-01T15:08:47;7.70;13.90
1381;DHT22;684;48.342;10.096;2023-03-01T15:11:20;7.70;14.00
1381;DHT22;684;48.342;10.096;2023-03-01T15:13:50;7.70;13.90
1381;DHT22;684;48.342;10.096;2023-03-01T15:16:19;7.70;13.90
1381;DHT22;684;48.342;10.096;2023-03-01T15:18:49;7.60;14.00
1381;DHT22;684;48.342;10.096;2023-03-01T15:21:20;7.60;14.00
1381;DHT22;684;48.342;10.096;2023-03-01T15:23:50;7.60;13.90
1381;DHT22;684;48.342;10.096;2023-03-01T15:26:23;7.50;14.10
1381;DHT22;684;48.342;10.096;2023-03-01T15:28:52;7.50;14.30
1381;DHT22;684;48.342;10.096;2023-03-01T15:31:22;7.50;14.30
1381;DHT22;684;48.342;10.096;2023-03-01T15:33:49;7.40;14.30
1381;DHT22;684;48.342;10.096;2023-03-01T15:36:33;7.40;14.20
1381;DHT22;684;48.342;10.096;2023-03-01T15:39:27;7.40;14.20
1381;DHT22;684;48.342;10.096;2023-03-01T15:41:56;7.30;14.30
1381;DHT22;684;48.342;10.096;2023-03-01T15:44:27;7.30;14.60
1381;DHT22;684;48.342;10.096;2023-03-01T15:46:54;7.20;14.60
1381;DHT22;684;48.342;10.096;2023-03-01T15:49:30;7.20;14.70
1381;DHT22;684;48.342;10.096;2023-03-01T15:52:01;7.10;14.70
1381;DHT22;684;48.342;10.096;2023-03-01T15:54:28;7.10;14.60
1381;DHT22;684;48.342;10.096;2023-03-01T15:56:55;7.00;14.80
1381;DHT22;684;48.342;10.096;2023-03-01T15:59:22;7.00;14.80
1381;DHT22;684;48.342;10.096;2023-03-01T16:01:49;6.90;15.00
1381;DHT22;684;48.342;10.096;2023-03-01T16:04:18;6.90;15.00
1381;DHT22;684;48.342;10.096;2023-03-01T16:06:48;6.90;15.10
1381;DHT22;684;48.342;10.096;2023-03-01T16:09:21;6.80;15.10
1381;DHT22;684;48.342;10.096;2023-03-01T16:11:48;6.80;15.20
1381;DHT22;684;48.342;10.096;2023-03-01T16:14:15;6.70;15.40
1381;DHT22;684;48.342;10.096;2023-03-01T16:16:42;6.60;15.40
1381;DHT22;684;48.342;10.096;2023-03-01T16:19:09;6.60;15.50
1381;DHT22;684;48.342;10.096;2023-03-01T16:21:36;6.60;15.50
1381;DHT22;684;48.342;10.096;2023-03-01T16:24:04;6.60;15.70
1381;DHT22;684;48.342;10.096;2023-03-01T16:26:33;6.50;15.80
1381;DHT22;684;48.342;10.096;2023-03-01T16:29:00;6.50;16.00
1381;DHT22;684;48.342;10.096;2023-03-01T16:31:27;6.40;16.10
1381;DHT22;684;48.342;10.096;2023-03-01T16:33:54;6.40;16.10
1381;DHT22;684;48.342;10.096;2023-03-01T16:36:22;6.40;16.30
1381;DHT22;684;48.342;10.096;2023-03-01T16:38:50;6.40;16.30
1381;DHT22;684;48.342;10.096;2023-03-01T16:41:18;6.40;16.40
1381;DHT22;684;48.342;10.096;2023-03-01T16:43:46;6.30;16.50
1381;DHT22;684;48.342;10.096;2023-03-01T16:46:16;6.40;16.40
1381;DHT22;684;48.342;10.096;2023-03-01T16:48:43;6.40;16.60
1381;DHT22;684;48.342;10.096;2023-03-01T16:51:10;6.40;16.60
1381;DHT22;684;48.342;10.096;2023-03-01T16:53:37;6.40;16.70
1381;DHT22;684;48.342;10.096;2023-03-01T16:56:07;6.40;16.80
1381;DHT22;684;48.342;10.096;2023-03-01T16:58:34;6.40;16.80
1381;DHT22;684;48.342;10.096;2023-03-01T17:01:06;6.40;16.80